Terminal Aerodrome Forecast
Issued by NWS Twin Cities, MN

Home | Current Version | Previous Version | Text Only | Print | Product List | Glossary Off
Versions: 1 2 3 4 5 6 7 8 9 10 11 12 13 14 15 16

000
FTUS43 KMPX 211120
TAFSTC
TAF
KSTC 211120Z 2112/2212 17015G20KT P6SM VCSH SCT030 OVC045
      TEMPO 2112/2114 BKN025
     FM211400 17014G21KT P6SM -SHRA OVC025
     FM212000 18010G20KT P6SM VCSH OVC020
     FM220100 24010KT P6SM BKN050=

USA.gov is the U.S. government's official web portal to all federal, state and local government web resources and services.